createdAt,value
2023-02-16T00:01:36.413Z,72.82
2023-02-16T00:04:15.446Z,81.60
2023-02-16T00:06:42.031Z,76.38
2023-02-16T00:09:08.592Z,72.22
2023-02-16T00:11:54.700Z,72.72
2023-02-16T00:14:24.280Z,81.68
2023-02-16T00:16:50.900Z,80.18
2023-02-16T00:19:34.789Z,70.07
2023-02-16T00:22:02.147Z,76.10
2023-02-16T00:24:30.397Z,70.32
2023-02-16T00:26:58.263Z,77.30
2023-02-16T00:29:24.829Z,82.55
2023-02-16T00:31:51.975Z,82.15
2023-02-16T00:34:40.474Z,80.85
2023-02-16T00:37:09.722Z,91.72
2023-02-16T00:39:37.426Z,80.15
2023-02-16T00:42:10.125Z,70.20
2023-02-16T00:44:41.772Z,88.47
2023-02-16T00:47:27.713Z,87.05
2023-02-16T00:49:56.854Z,86.10
2023-02-16T00:52:31.560Z,89.65
2023-02-16T00:57:27.338Z,82.90
2023-02-16T01:00:00.759Z,92.75
2023-02-16T01:02:27.729Z,99.50
2023-02-16T01:04:55.471Z,89.03
2023-02-16T01:07:40.622Z,87.40
2023-02-16T01:10:26.210Z,89.32
2023-02-16T01:12:52.911Z,83.57
2023-02-16T01:15:23.979Z,81.45
2023-02-16T01:17:51.743Z,82.25
2023-02-16T01:20:24.537Z,81.93
2023-02-16T01:22:51.750Z,93.95
2023-02-16T01:25:18.333Z,91.68
2023-02-16T01:27:46.208Z,94.50
2023-02-16T01:30:20.110Z,102.68
2023-02-16T01:32:51.710Z,90.93
2023-02-16T01:35:30.651Z,102.68
2023-02-16T01:37:57.424Z,96.57
2023-02-16T01:40:29.728Z,105.57
2023-02-16T01:43:10.618Z,104.90
2023-02-16T01:45:42.758Z,97.85
2023-02-16T01:48:27.643Z,102.45
2023-02-16T01:51:26.789Z,102.72
2023-02-16T01:54:33.535Z,93.57
2023-02-16T01:57:18.332Z,109.63
2023-02-16T01:59:45.230Z,106.68
2023-02-16T02:02:19.034Z,106.78
2023-02-16T02:05:16.298Z,94.03
2023-02-16T02:07:54.767Z,106.63
2023-02-16T02:10:50.057Z,97.25
2023-02-16T02:13:28.787Z,89.10
2023-02-16T02:15:59.423Z,99.60
2023-02-16T02:18:26.201Z,97.15
2023-02-16T02:21:28.409Z,99.75
2023-02-16T02:24:11.898Z,99.72
2023-02-16T02:26:47.685Z,103.32
2023-02-16T02:29:27.355Z,101.03
2023-02-16T02:32:06.875Z,99.45
2023-02-16T02:35:01.597Z,104.75
2023-02-16T02:37:52.675Z,105.30
2023-02-16T02:40:41.593Z,93.22
2023-02-16T02:43:20.969Z,96.95
2023-02-16T02:46:16.497Z,102.85
2023-02-16T02:48:43.538Z,99.35
2023-02-16T02:51:30.571Z,105.78
2023-02-16T02:54:30.060Z,110.70
2023-02-16T02:57:43.062Z,100.78
2023-02-16T03:00:36.969Z,93.40
2023-02-16T03:03:09.892Z,90.25
2023-02-16T03:05:38.861Z,99.13
2023-02-16T03:08:14.211Z,103.45
2023-02-16T03:11:03.780Z,113.25
2023-02-16T03:13:37.531Z,103.22
2023-02-16T03:16:13.069Z,106.35
2023-02-16T03:19:00.990Z,109.80
2023-02-16T03:21:47.786Z,116.05
2023-02-16T03:24:40.301Z,108.03
2023-02-16T03:27:26.973Z,100.97
2023-02-16T03:29:55.415Z,98.40
2023-02-16T03:32:22.292Z,109.68
2023-02-16T03:34:49.338Z,113.60
2023-02-16T03:37:16.137Z,108.22
2023-02-16T03:40:01.399Z,92.50
2023-02-16T03:42:28.044Z,97.53
2023-02-16T03:44:54.899Z,106.32
2023-02-16T03:47:21.541Z,115.70
2023-02-16T03:49:48.312Z,115.32
2023-02-16T03:52:14.969Z,106.65
2023-02-16T03:54:41.547Z,107.25
2023-02-16T03:57:08.195Z,104.63
2023-02-16T03:59:34.849Z,92.85
2023-02-16T04:02:01.546Z,98.65
2023-02-16T04:04:28.303Z,109.32
2023-02-16T04:06:54.874Z,97.45
2023-02-16T04:09:21.483Z,101.07
2023-02-16T04:12:06.822Z,109.95
2023-02-16T04:14:33.500Z,108.53
2023-02-16T04:17:00.134Z,94.88
2023-02-16T04:19:27.201Z,95.63
2023-02-16T04:21:53.873Z,102.28
2023-02-16T04:24:20.551Z,93.20
2023-02-16T04:26:49.325Z,84.55
2023-02-16T04:29:15.987Z,100.60
2023-02-16T04:31:42.904Z,113.63
2023-02-16T04:34:09.580Z,90.65
2023-02-16T04:36:36.219Z,93.45
2023-02-16T04:39:03.337Z,100.90
2023-02-16T04:41:30.096Z,88.07
2023-02-16T04:43:56.748Z,98.95
2023-02-16T04:46:23.988Z,91.88
2023-02-16T04:48:50.712Z,111.22
2023-02-16T04:51:17.556Z,96.40
2023-02-16T04:53:44.291Z,95.10
2023-02-16T04:56:12.522Z,87.47
2023-02-16T04:58:39.490Z,87.65
2023-02-16T05:01:06.549Z,88.90
2023-02-16T05:03:33.791Z,85.75
2023-02-16T05:06:00.779Z,86.82
2023-02-16T05:08:27.445Z,85.75
2023-02-16T05:11:12.505Z,95.32
2023-02-16T05:13:57.922Z,95.00
2023-02-16T05:16:24.951Z,94.85
2023-02-16T05:18:51.627Z,97.40
2023-02-16T05:21:35.096Z,106.65
2023-02-16T05:24:07.500Z,89.93
2023-02-16T05:26:35.835Z,97.90
2023-02-16T05:29:03.826Z,95.88
2023-02-16T05:31:30.741Z,95.63
2023-02-16T05:33:57.424Z,99.00
2023-02-16T05:36:24.545Z,95.15
2023-02-16T05:38:51.356Z,105.57
2023-02-16T05:41:23.704Z,99.05
2023-02-16T05:43:55.180Z,91.72
2023-02-16T05:46:23.524Z,94.55
2023-02-16T05:48:51.122Z,93.28
2023-02-16T05:51:19.192Z,91.40
2023-02-16T05:53:46.441Z,101.07
2023-02-16T05:56:13.511Z,107.85
2023-02-16T05:58:40.283Z,102.60
2023-02-16T06:01:06.958Z,78.20
2023-02-16T06:03:33.714Z,102.38
2023-02-16T06:06:01.816Z,90.28
2023-02-16T06:08:29.215Z,101.28
2023-02-16T06:10:56.388Z,97.20
2023-02-16T06:13:23.607Z,93.93
2023-02-16T06:15:55.993Z,92.53
2023-02-16T06:18:24.148Z,105.32
2023-02-16T06:20:51.044Z,97.53
2023-02-16T06:23:18.088Z,107.20
2023-02-16T06:25:48.632Z,99.70
2023-02-16T06:28:15.613Z,88.40
2023-02-16T06:30:42.571Z,102.40
2023-02-16T06:33:09.418Z,97.38
2023-02-16T06:35:36.001Z,101.00
2023-02-16T06:38:02.657Z,103.68
2023-02-16T06:40:29.325Z,90.30
2023-02-16T06:42:55.951Z,91.30
2023-02-16T06:45:22.529Z,77.82
2023-02-16T06:47:49.173Z,145.00
2023-02-16T06:50:17.566Z,120.25
2023-02-16T06:52:44.252Z,84.30
2023-02-16T06:55:10.951Z,82.57
2023-02-16T06:57:37.541Z,81.03
2023-02-16T07:00:06.153Z,90.25
2023-02-16T07:02:32.860Z,89.38
2023-02-16T07:04:59.497Z,90.30
2023-02-16T07:07:26.185Z,94.95
2023-02-16T07:09:52.762Z,95.53
2023-02-16T07:12:19.385Z,89.40
2023-02-16T07:14:46.021Z,83.35
2023-02-16T07:17:12.666Z,89.20
2023-02-16T07:19:39.266Z,80.07
2023-02-16T07:22:05.916Z,81.07
2023-02-16T07:24:32.554Z,84.22
2023-02-16T07:26:59.219Z,83.80
2023-02-16T07:29:25.904Z,86.70
2023-02-16T07:31:53.604Z,93.25
2023-02-16T07:34:21.772Z,217.93
2023-02-16T07:36:49.027Z,96.40
2023-02-16T07:39:15.965Z,123.07
2023-02-16T07:41:42.648Z,155.15
2023-02-16T07:44:09.315Z,88.07
2023-02-16T07:46:35.946Z,82.18
2023-02-16T07:49:02.728Z,90.70
2023-02-16T07:51:30.990Z,78.75
2023-02-16T07:53:59.456Z,81.85
2023-02-16T07:56:28.413Z,81.03
2023-02-16T07:58:56.624Z,78.00
2023-02-16T08:01:24.170Z,91.90
2023-02-16T08:03:51.493Z,77.78
2023-02-16T08:06:19.432Z,77.45
2023-02-16T08:08:46.354Z,78.35
2023-02-16T08:11:17.139Z,72.95
2023-02-16T08:13:44.080Z,81.20
2023-02-16T08:16:19.751Z,76.95
2023-02-16T08:18:46.588Z,72.28
2023-02-16T08:21:24.841Z,72.78
2023-02-16T08:23:58.179Z,78.15
2023-02-16T08:26:28.773Z,70.10
2023-02-16T08:28:57.662Z,72.28
2023-02-16T08:31:29.825Z,66.57
2023-02-16T08:33:59.170Z,65.82
2023-02-16T08:36:34.886Z,67.18
2023-02-16T08:39:04.893Z,60.58
2023-02-16T08:41:33.674Z,56.97
2023-02-16T08:44:01.216Z,56.75
2023-02-16T08:46:29.360Z,52.67
2023-02-16T08:48:59.293Z,49.65
2023-02-16T08:51:28.221Z,43.45
2023-02-16T08:53:55.857Z,45.47
2023-02-16T08:56:23.610Z,50.13
2023-02-16T08:58:50.324Z,45.53
2023-02-16T09:01:17.346Z,47.97
2023-02-16T09:03:46.030Z,44.22
2023-02-16T09:06:15.507Z,48.00
2023-02-16T09:08:42.890Z,49.42
2023-02-16T09:11:13.470Z,47.35
2023-02-16T09:13:44.536Z,46.90
2023-02-16T09:16:13.858Z,49.38
2023-02-16T09:18:40.982Z,48.35
2023-02-16T09:21:11.634Z,48.45
2023-02-16T09:23:39.872Z,47.50
2023-02-16T09:26:09.501Z,43.22
2023-02-16T09:28:38.244Z,50.15
2023-02-16T09:31:13.214Z,46.33
2023-02-16T09:33:41.773Z,45.35
2023-02-16T09:36:11.553Z,48.25
2023-02-16T09:38:43.051Z,43.25
2023-02-16T09:41:30.714Z,45.80
2023-02-16T09:44:15.527Z,47.67
2023-02-16T09:46:42.803Z,46.33
2023-02-16T09:49:34.703Z,45.92
2023-02-16T09:52:28.873Z,43.22
2023-02-16T09:54:58.070Z,48.33
2023-02-16T09:58:03.021Z,48.90
2023-02-16T10:00:32.792Z,41.60
2023-02-16T10:03:28.768Z,43.72
2023-02-16T10:06:07.243Z,43.25
2023-02-16T10:08:50.081Z,49.83
2023-02-16T10:11:38.831Z,40.25
2023-02-16T10:14:13.534Z,41.42
2023-02-16T10:16:50.577Z,41.95
2023-02-16T10:19:49.044Z,44.10
2023-02-16T10:22:27.173Z,47.00
2023-02-16T10:25:29.251Z,38.50
2023-02-16T10:28:22.632Z,42.58
2023-02-16T10:31:10.111Z,42.85
2023-02-16T10:33:41.589Z,39.70
2023-02-16T10:36:42.000Z,39.58
2023-02-16T10:39:22.281Z,40.45
2023-02-16T10:42:01.590Z,45.90
2023-02-16T10:44:39.097Z,41.80
2023-02-16T10:47:15.367Z,42.72
2023-02-16T10:49:42.049Z,40.22
2023-02-16T10:52:10.473Z,40.67
2023-02-16T10:54:37.119Z,40.45
2023-02-16T10:57:06.575Z,39.75
2023-02-16T10:59:39.228Z,39.25
2023-02-16T11:02:19.834Z,40.30
2023-02-16T11:04:49.522Z,38.60
2023-02-16T11:07:19.015Z,38.08
2023-02-16T11:09:48.148Z,38.75
2023-02-16T11:12:27.119Z,40.53
2023-02-16T11:14:59.821Z,42.67
2023-02-16T11:17:27.706Z,43.60
2023-02-16T11:20:06.568Z,44.10
2023-02-16T11:22:37.099Z,45.92
2023-02-16T11:25:21.929Z,46.70
2023-02-16T11:28:05.251Z,45.28
2023-02-16T11:30:40.894Z,45.90
2023-02-16T11:33:28.996Z,44.10
2023-02-16T11:35:56.516Z,44.65
2023-02-16T11:38:29.536Z,43.40
2023-02-16T11:40:58.081Z,42.08
2023-02-16T11:43:28.709Z,44.58
2023-02-16T11:46:11.902Z,44.75
2023-02-16T11:48:38.815Z,45.08
2023-02-16T11:51:08.360Z,44.53
2023-02-16T11:53:38.117Z,46.40
2023-02-16T11:56:15.544Z,46.65
2023-02-16T11:58:42.739Z,98.35
2023-02-16T12:01:28.973Z,45.85
2023-02-16T12:04:24.420Z,42.40
2023-02-16T12:07:38.531Z,42.58
2023-02-16T12:10:12.272Z,45.85
2023-02-16T12:13:06.876Z,47.42
2023-02-16T12:15:44.802Z,44.72
2023-02-16T12:18:17.161Z,43.67
2023-02-16T12:21:12.834Z,43.95
2023-02-16T12:24:00.661Z,45.13
2023-02-16T12:26:57.782Z,44.20
2023-02-16T12:29:44.863Z,44.47
2023-02-16T12:32:24.548Z,45.13
2023-02-16T12:35:14.362Z,43.10
2023-02-16T12:38:00.055Z,46.20
2023-02-16T12:41:10.338Z,44.15
2023-02-16T12:43:52.755Z,45.97
2023-02-16T12:46:40.317Z,44.58
2023-02-16T12:49:27.374Z,43.13
2023-02-16T12:52:04.460Z,46.47
2023-02-16T12:54:50.572Z,46.08
2023-02-16T12:57:23.065Z,44.58
2023-02-16T13:00:18.671Z,44.53
2023-02-16T13:02:51.262Z,44.45
2023-02-16T13:05:30.275Z,47.28
2023-02-16T13:08:06.184Z,45.40
2023-02-16T13:10:57.636Z,43.47
2023-02-16T13:13:29.712Z,44.30
2023-02-16T13:16:29.674Z,48.53
2023-02-16T13:18:57.700Z,45.05
2023-02-16T13:21:52.689Z,45.42
2023-02-16T13:24:36.021Z,47.03
2023-02-16T13:27:06.087Z,48.53
2023-02-16T13:30:00.351Z,47.95
2023-02-16T13:32:46.407Z,45.88
2023-02-16T13:35:13.009Z,44.92
2023-02-16T13:37:49.566Z,46.80
2023-02-16T13:40:25.514Z,44.65
2023-02-16T13:43:01.188Z,46.72
2023-02-16T13:45:31.855Z,52.67
2023-02-16T13:47:59.992Z,53.78
2023-02-16T13:50:31.585Z,58.50
2023-02-16T13:53:16.970Z,59.00
2023-02-16T13:55:44.814Z,58.95
2023-02-16T13:58:14.208Z,56.05
2023-02-16T14:00:44.982Z,56.25
2023-02-16T14:03:17.470Z,52.70
2023-02-16T14:05:47.786Z,49.45
2023-02-16T14:08:29.647Z,49.85
2023-02-16T14:11:00.553Z,50.50
2023-02-16T14:13:47.651Z,57.45
2023-02-16T14:16:18.548Z,52.20
2023-02-16T14:18:58.794Z,53.90
2023-02-16T14:21:43.914Z,55.20
2023-02-16T14:24:24.648Z,60.17
2023-02-16T14:26:59.187Z,55.90
2023-02-16T14:29:34.588Z,53.60
2023-02-16T14:32:23.891Z,55.08
2023-02-16T14:35:22.823Z,58.28
2023-02-16T14:38:16.177Z,56.70
2023-02-16T14:40:52.045Z,58.67
2023-02-16T14:43:28.071Z,59.10
2023-02-16T14:46:29.159Z,57.60
2023-02-16T14:49:17.412Z,61.15
2023-02-16T14:51:52.755Z,57.03
2023-02-16T14:54:41.478Z,52.47
2023-02-16T14:57:23.397Z,51.45
2023-02-16T15:00:01.548Z,52.10
2023-02-16T15:02:31.696Z,54.65
2023-02-16T15:04:58.660Z,53.95
2023-02-16T15:07:28.622Z,57.88
2023-02-16T15:10:02.895Z,55.47
2023-02-16T15:12:40.637Z,57.55
2023-02-16T15:15:13.314Z,57.88
2023-02-16T15:17:47.908Z,54.35
2023-02-16T15:20:38.380Z,57.28
2023-02-16T15:23:16.352Z,54.70
2023-02-16T15:25:51.822Z,53.53
2023-02-16T15:28:22.289Z,52.63
2023-02-16T15:30:55.552Z,52.63
2023-02-16T15:33:22.844Z,52.22
2023-02-16T15:35:56.745Z,52.03
2023-02-16T15:38:26.500Z,53.85
2023-02-16T15:40:55.143Z,54.22
2023-02-16T15:43:39.792Z,49.00
2023-02-16T15:46:13.824Z,51.60
2023-02-16T15:48:40.945Z,53.27
2023-02-16T15:51:25.014Z,51.65
2023-02-16T15:53:58.371Z,49.60
2023-02-16T15:56:48.520Z,49.25
2023-02-16T15:59:38.378Z,49.85
2023-02-16T16:02:17.650Z,90.40
2023-02-16T16:04:54.952Z,57.90
2023-02-16T16:07:29.842Z,56.95
2023-02-16T16:09:57.636Z,95.80
2023-02-16T16:12:25.548Z,90.78
2023-02-16T16:14:56.373Z,100.88
2023-02-16T16:17:39.707Z,139.95
2023-02-16T16:20:25.617Z,63.35
2023-02-16T16:23:21.228Z,68.65
2023-02-16T16:25:49.021Z,54.30
2023-02-16T16:28:24.732Z,61.58
2023-02-16T16:31:09.947Z,59.20
2023-02-16T16:34:01.458Z,66.60
2023-02-16T16:36:56.924Z,87.93
2023-02-16T16:39:29.356Z,54.15
2023-02-16T16:42:16.631Z,57.85
2023-02-16T16:45:26.764Z,54.35
2023-02-16T16:48:00.462Z,57.50
2023-02-16T16:50:33.276Z,55.05
2023-02-16T16:53:00.355Z,54.13
2023-02-16T16:55:34.131Z,57.35
2023-02-16T16:58:06.297Z,51.83
2023-02-16T17:00:36.168Z,104.85
2023-02-16T17:03:05.843Z,155.18
2023-02-16T17:05:33.942Z,78.30
2023-02-16T17:08:00.594Z,55.10
2023-02-16T17:10:27.767Z,55.20
2023-02-16T17:12:57.954Z,57.90
2023-02-16T17:15:47.791Z,137.10
2023-02-16T17:18:17.632Z,77.05
2023-02-16T17:20:45.223Z,105.78
2023-02-16T17:23:13.774Z,79.97
2023-02-16T17:25:40.644Z,61.65
2023-02-16T17:28:08.304Z,62.83
2023-02-16T17:30:35.200Z,63.55
2023-02-16T17:33:02.987Z,96.03
2023-02-16T17:35:32.181Z,73.07
2023-02-16T17:37:58.959Z,87.55
2023-02-16T17:40:26.598Z,69.00
2023-02-16T17:42:53.296Z,68.32
2023-02-16T17:45:21.749Z,99.20
2023-02-16T17:47:51.772Z,101.72
2023-02-16T17:50:19.476Z,82.82
2023-02-16T17:52:46.214Z,83.60
2023-02-16T17:55:13.384Z,71.80
2023-02-16T17:57:40.749Z,76.35
2023-02-16T18:00:13.788Z,64.72
2023-02-16T18:02:40.836Z,74.28
2023-02-16T18:05:07.859Z,88.53
2023-02-16T18:07:34.449Z,90.95
2023-02-16T18:10:01.179Z,90.18
2023-02-16T18:12:28.593Z,82.18
2023-02-16T18:14:55.245Z,145.40
2023-02-16T18:17:21.865Z,88.53
2023-02-16T18:19:48.463Z,74.50
2023-02-16T18:22:15.317Z,72.15
2023-02-16T18:24:44.188Z,72.97
2023-02-16T18:27:10.844Z,77.25
2023-02-16T18:29:37.625Z,64.43
2023-02-16T18:32:04.428Z,76.63
2023-02-16T18:34:32.371Z,74.95
2023-02-16T18:36:59.047Z,65.55
2023-02-16T18:39:26.056Z,85.60
2023-02-16T18:41:52.659Z,185.73
2023-02-16T18:44:19.256Z,80.43
2023-02-16T18:46:45.857Z,66.80
2023-02-16T18:49:12.496Z,70.93
2023-02-16T18:51:39.257Z,80.28
2023-02-16T18:54:05.976Z,69.18
2023-02-16T18:56:35.285Z,76.85
2023-02-16T18:59:01.880Z,71.25
2023-02-16T19:01:32.360Z,71.38
2023-02-16T19:04:00.465Z,70.88
2023-02-16T19:06:28.148Z,61.00
2023-02-16T19:08:56.124Z,55.20
2023-02-16T19:11:22.706Z,58.00
2023-02-16T19:13:49.694Z,63.30
2023-02-16T19:16:17.065Z,63.42
2023-02-16T19:18:43.900Z,59.40
2023-02-16T19:21:12.949Z,62.90
2023-02-16T19:23:40.222Z,57.55
2023-02-16T19:26:12.840Z,60.50
2023-02-16T19:28:40.123Z,59.33
2023-02-16T19:31:09.345Z,58.92
2023-02-16T19:33:36.235Z,57.88
2023-02-16T19:36:08.787Z,61.42
2023-02-16T19:38:36.802Z,60.88
2023-02-16T19:41:15.452Z,63.08
2023-02-16T19:43:42.764Z,56.75
2023-02-16T19:46:11.005Z,58.72
2023-02-16T19:48:38.125Z,61.85
2023-02-16T19:51:05.939Z,63.60
2023-02-16T19:53:33.482Z,57.17
2023-02-16T19:56:03.126Z,60.75
2023-02-16T19:58:29.908Z,62.17
2023-02-16T20:00:56.573Z,60.30
2023-02-16T20:03:23.206Z,62.92
2023-02-16T20:05:49.996Z,74.93
2023-02-16T20:08:16.819Z,111.90
2023-02-16T20:10:44.330Z,72.20
2023-02-16T20:13:11.267Z,59.90
2023-02-16T20:15:38.377Z,61.55
2023-02-16T20:18:06.471Z,66.78
2023-02-16T20:20:33.167Z,71.72
2023-02-16T20:22:59.847Z,64.93
2023-02-16T20:25:26.581Z,66.80
2023-02-16T20:27:53.406Z,61.35
2023-02-16T20:30:21.620Z,58.22
2023-02-16T20:32:48.656Z,59.90
2023-02-16T20:35:15.626Z,51.42
2023-02-16T20:37:42.424Z,48.38
2023-02-16T20:40:09.588Z,48.70
2023-02-16T20:42:36.258Z,52.97
2023-02-16T20:45:03.480Z,47.20
2023-02-16T20:47:30.128Z,51.30
2023-02-16T20:49:56.901Z,50.72
2023-02-16T20:52:23.554Z,58.05
2023-02-16T20:54:50.207Z,54.15
2023-02-16T20:57:26.343Z,51.50
2023-02-16T20:59:54.557Z,53.13
2023-02-16T21:02:21.303Z,51.78
2023-02-16T21:04:48.014Z,55.88
2023-02-16T21:07:14.888Z,67.15
2023-02-16T21:09:42.395Z,69.15
2023-02-16T21:12:09.075Z,57.58
2023-02-16T21:14:35.778Z,52.70
2023-02-16T21:17:02.508Z,53.72
2023-02-16T21:19:29.224Z,52.88
2023-02-16T21:21:56.248Z,47.55
2023-02-16T21:24:23.209Z,47.55
2023-02-16T21:26:49.937Z,49.53
2023-02-16T21:29:16.887Z,48.83
2023-02-16T21:31:44.023Z,51.42
2023-02-16T21:34:10.909Z,61.15
2023-02-16T21:36:38.707Z,47.53
2023-02-16T21:39:05.812Z,42.83
2023-02-16T21:41:32.659Z,31.63
2023-02-16T21:44:07.731Z,41.78
2023-02-16T21:46:40.007Z,42.50
2023-02-16T21:49:09.135Z,44.88
2023-02-16T21:51:37.625Z,42.42
2023-02-16T21:54:09.369Z,43.03
2023-02-16T21:56:42.954Z,43.63
2023-02-16T21:59:19.674Z,49.83
2023-02-16T22:01:50.756Z,51.40
2023-02-16T22:04:21.286Z,55.05
2023-02-16T22:06:49.885Z,54.30
2023-02-16T22:09:19.392Z,58.05
2023-02-16T22:11:46.655Z,56.03
2023-02-16T22:14:13.899Z,45.47
2023-02-16T22:16:41.402Z,46.50
2023-02-16T22:19:12.341Z,44.05
2023-02-16T22:21:41.600Z,48.38
2023-02-16T22:24:11.554Z,48.97
2023-02-16T22:26:38.262Z,43.13
2023-02-16T22:29:06.383Z,46.55
2023-02-16T22:31:33.864Z,46.30
2023-02-16T22:34:03.162Z,42.72
2023-02-16T22:36:30.102Z,42.42
2023-02-16T22:38:57.262Z,44.15
2023-02-16T22:41:24.796Z,44.78
2023-02-16T22:43:54.091Z,42.13
2023-02-16T22:46:21.329Z,40.28
2023-02-16T22:48:48.674Z,38.35
2023-02-16T22:51:16.881Z,44.13
2023-02-16T22:53:44.030Z,40.38
2023-02-16T22:56:15.853Z,39.90
2023-02-16T22:58:43.132Z,37.47
2023-02-16T23:01:16.834Z,32.97
2023-02-16T23:03:53.328Z,32.00
2023-02-16T23:06:22.253Z,35.13
2023-02-16T23:08:54.612Z,34.05
2023-02-16T23:11:21.336Z,34.35
2023-02-16T23:13:48.112Z,35.53
2023-02-16T23:16:17.540Z,34.42
2023-02-16T23:18:45.066Z,34.05
2023-02-16T23:21:19.006Z,30.70
2023-02-16T23:23:46.790Z,30.55
2023-02-16T23:26:14.447Z,30.85
2023-02-16T23:28:42.145Z,29.42
2023-02-16T23:31:10.426Z,33.90
2023-02-16T23:33:37.145Z,27.48
2023-02-16T23:36:04.391Z,28.08
2023-02-16T23:38:31.306Z,35.30
2023-02-16T23:40:59.848Z,32.08
2023-02-16T23:43:26.698Z,32.97
2023-02-16T23:45:53.794Z,26.98
2023-02-16T23:48:20.951Z,21.17
2023-02-16T23:50:48.998Z,22.95
2023-02-16T23:53:15.609Z,25.23
2023-02-16T23:55:42.186Z,27.63
2023-02-16T23:58:10.133Z,27.00
